Time;durP1;ratioP1;P1;durP2;ratioP2;P2;SDS_P1;SDS_P2;PMS_P1;PMS_P2;Temp;Humidity;BMP_temperature;BMP_pressure;BME280_temperature;BME280_humidity;BME280_pressure;Samples;Min_cycle;Max_cycle;Signal;HPM_P1;HPM_P2
2023/05/04 00:02:23;;;;;;;6.05;2.67;;;;;;;;;;4948727;28;95560;-78
2023/05/04 00:04:52;;;;;;;5.47;2.50;;;;;;;;;;4966125;28;93127;-78
2023/05/04 00:07:19;;;;;;;13.98;2.80;;;;;;;;;;4954040;28;95663;-78
2023/05/04 00:09:46;;;;;;;6.43;2.75;;;;;;;;;;4953740;28;93269;-77
2023/05/04 00:12:12;;;;;;;14.30;2.95;;;;;;;;;;4957559;28;92961;-77
2023/05/04 00:14:39;;;;;;;7.45;2.80;;;;;;;;;;4946462;28;92810;-77
2023/05/04 00:17:06;;;;;;;8.70;3.13;;;;;;;;;;4949311;28;93250;-77
2023/05/04 00:19:33;;;;;;;6.85;2.80;;;;;;;;;;4971620;28;92473;-77
2023/05/04 00:22:00;;;;;;;7.88;2.90;;;;;;;;;;4971163;28;92531;-77
2023/05/04 00:24:27;;;;;;;6.35;2.65;;;;;;;;;;4967800;28;92284;-78
2023/05/04 00:26:54;;;;;;;7.90;3.40;;;;;;;;;;4981058;28;92344;-78
2023/05/04 00:29:20;;;;;;;6.68;2.75;;;;;;;;;;4982278;28;92379;-77
2023/05/04 00:31:47;;;;;;;7.75;3.55;;;;;;;;;;4972062;28;94869;-77
2023/05/04 00:34:14;;;;;;;5.93;3.10;;;;;;;;;;4966094;28;95297;-77
2023/05/04 00:36:41;;;;;;;8.27;3.25;;;;;;;;;;4967483;28;94180;-76
2023/05/04 00:39:08;;;;;;;7.28;2.83;;;;;;;;;;4957848;28;92930;-77
2023/05/04 00:41:34;;;;;;;8.35;3.17;;;;;;;;;;4972438;28;93783;-77
2023/05/04 00:44:03;;;;;;;7.70;2.90;;;;;;;;;;4972940;28;92778;-77
2023/05/04 00:46:30;;;;;;;8.30;3.10;;;;;;;;;;4970285;28;93375;-77
2023/05/04 00:48:58;;;;;;;6.07;2.78;;;;;;;;;;4969086;28;91731;-77
2023/05/04 00:51:25;;;;;;;6.90;3.00;;;;;;;;;;4969165;28;92822;-76
2023/05/04 00:53:56;;;;;;;7.85;3.28;;;;;;;;;;4966419;28;92841;-77
2023/05/04 00:56:23;;;;;;;7.75;3.78;;;;;;;;;;4969253;28;96118;-77
2023/05/04 00:58:54;;;;;;;6.88;3.00;;;;;;;;;;4948590;28;92976;-76
2023/05/04 01:01:21;;;;;;;9.65;3.50;;;;;;;;;;4958360;28;96434;-77
2023/05/04 01:03:51;;;;;;;9.50;3.10;;;;;;;;;;4965355;28;92668;-77
2023/05/04 01:06:27;;;;;;;7.22;2.97;;;;;;;;;;4968476;28;93442;-77
2023/05/04 01:09:01;;;;;;;7.18;3.30;;;;;;;;;;4949136;28;94650;-78
2023/05/04 01:11:42;;;;;;;6.53;2.63;;;;;;;;;;4960646;28;92954;-77
2023/05/04 01:14:09;;;;;;;12.38;3.30;;;;;;;;;;4948706;28;95389;-77
2023/05/04 01:16:35;;;;;;;5.65;2.83;;;;;;;;;;4956158;28;95887;-77
2023/05/04 01:19:02;;;;;;;9.55;3.47;;;;;;;;;;4965402;28;92773;-77
2023/05/04 01:21:29;;;;;;;6.75;3.00;;;;;;;;;;4966822;28;95430;-77
2023/05/04 01:23:56;;;;;;;7.63;2.92;;;;;;;;;;4970859;28;93167;-77
2023/05/04 01:26:31;;;;;;;6.43;2.70;;;;;;;;;;4965124;28;92707;-77
2023/05/04 01:29:00;;;;;;;7.63;2.85;;;;;;;;;;4953060;28;93236;-78
2023/05/04 01:31:27;;;;;;;6.20;3.00;;;;;;;;;;4952208;28;92483;-78
2023/05/04 01:33:54;;;;;;;8.27;3.15;;;;;;;;;;4956165;28;93023;-78
2023/05/04 01:36:21;;;;;;;6.72;3.30;;;;;;;;;;4948624;28;93019;-77
2023/05/04 01:38:48;;;;;;;6.50;3.05;;;;;;;;;;4968409;28;92083;-78
2023/05/04 01:41:15;;;;;;;7.63;3.08;;;;;;;;;;4959298;28;93026;-78
2023/05/04 01:43:41;;;;;;;7.05;2.85;;;;;;;;;;4967376;28;93231;-78
2023/05/04 01:46:07;;;;;;;8.05;3.10;;;;;;;;;;4960565;28;95432;-78
2023/05/04 01:48:34;;;;;;;8.05;3.25;;;;;;;;;;4968383;28;93894;-78
2023/05/04 01:51:01;;;;;;;8.63;2.95;;;;;;;;;;4968332;28;92623;-78
2023/05/04 01:53:29;;;;;;;7.88;3.42;;;;;;;;;;4966559;28;95677;-78
2023/05/04 01:55:55;;;;;;;6.50;2.75;;;;;;;;;;4961755;28;94289;-78
2023/05/04 01:58:22;;;;;;;7.00;2.60;;;;;;;;;;4958309;28;100922;-78
2023/05/04 02:00:48;;;;;;;7.15;2.63;;;;;;;;;;4961253;28;94668;-78
2023/05/04 02:03:15;;;;;;;6.82;2.22;;;;;;;;;;4962460;28;95055;-78
2023/05/04 02:05:42;;;;;;;12.50;2.55;;;;;;;;;;4967725;28;92490;-78
2023/05/04 02:08:08;;;;;;;7.15;2.42;;;;;;;;;;4969097;28;94166;-78
2023/05/04 02:10:34;;;;;;;7.03;2.30;;;;;;;;;;4963299;28;94787;-78
2023/05/04 02:13:01;;;;;;;5.65;2.15;;;;;;;;;;4954122;28;93925;-77
2023/05/04 02:15:28;;;;;;;5.90;2.10;;;;;;;;;;4965661;28;95784;-78
2023/05/04 02:17:54;;;;;;;6.53;2.50;;;;;;;;;;4958799;28;92473;-78
2023/05/04 02:20:21;;;;;;;5.95;2.28;;;;;;;;;;4965339;28;94221;-78
2023/05/04 02:22:47;;;;;;;4.38;2.10;;;;;;;;;;4965507;28;96018;-78
2023/05/04 02:25:14;;;;;;;6.65;2.40;;;;;;;;;;4966038;28;93120;-78
2023/05/04 02:27:40;;;;;;;6.25;2.28;;;;;;;;;;4962743;28;94171;-78
2023/05/04 02:30:08;;;;;;;4.60;2.22;;;;;;;;;;4965733;28;92659;-77
2023/05/04 02:32:35;;;;;;;5.28;2.30;;;;;;;;;;4965029;28;94387;-77
2023/05/04 02:35:02;;;;;;;4.70;2.22;;;;;;;;;;4947958;28;97816;-78
2023/05/04 02:37:28;;;;;;;7.15;2.33;;;;;;;;;;4957907;28;92897;-78
2023/05/04 02:39:55;;;;;;;6.22;2.30;;;;;;;;;;4967413;28;92943;-78
2023/05/04 02:42:22;;;;;;;5.30;2.28;;;;;;;;;;4955632;28;93484;-78
2023/05/04 02:44:48;;;;;;;6.10;2.08;;;;;;;;;;4965733;28;92785;-79
2023/05/04 02:47:14;;;;;;;10.75;2.53;;;;;;;;;;4964026;28;94300;-78
2023/05/04 02:49:41;;;;;;;8.20;2.47;;;;;;;;;;4950248;28;93728;-78
2023/05/04 02:52:08;;;;;;;6.65;2.40;;;;;;;;;;4949567;28;93773;-78
2023/05/04 02:54:34;;;;;;;5.80;2.28;;;;;;;;;;4966032;28;94043;-78
2023/05/04 02:57:01;;;;;;;5.85;2.20;;;;;;;;;;4962408;28;93110;-77
2023/05/04 02:59:27;;;;;;;5.20;2.10;;;;;;;;;;4962833;28;95294;-76
2023/05/04 03:01:54;;;;;;;4.68;2.20;;;;;;;;;;4964915;28;95647;-76
2023/05/04 03:04:21;;;;;;;4.00;1.90;;;;;;;;;;4963865;28;92478;-76
2023/05/04 03:06:47;;;;;;;4.28;2.15;;;;;;;;;;4966437;28;93538;-79
2023/05/04 03:09:14;;;;;;;5.55;2.45;;;;;;;;;;4960451;28;95845;-76
2023/05/04 03:11:40;;;;;;;4.05;2.03;;;;;;;;;;4966162;28;93140;-76
2023/05/04 03:14:06;;;;;;;4.68;2.20;;;;;;;;;;4966186;28;93139;-76
2023/05/04 03:16:33;;;;;;;4.40;2.05;;;;;;;;;;4967149;28;92021;-76
2023/05/04 03:19:01;;;;;;;4.93;2.13;;;;;;;;;;4959006;28;95152;-76
2023/05/04 03:21:28;;;;;;;6.70;2.50;;;;;;;;;;4964781;28;95231;-76
2023/05/04 03:23:55;;;;;;;6.00;2.38;;;;;;;;;;4964830;28;94888;-76
2023/05/04 03:26:21;;;;;;;5.40;2.30;;;;;;;;;;4963840;28;95656;-77
2023/05/04 03:28:48;;;;;;;4.85;2.20;;;;;;;;;;4954447;28;95712;-77
2023/05/04 03:31:15;;;;;;;6.63;2.45;;;;;;;;;;4948499;28;92535;-79
2023/05/04 03:33:41;;;;;;;6.07;2.70;;;;;;;;;;4961315;28;92745;-78
2023/05/04 03:36:08;;;;;;;5.78;2.50;;;;;;;;;;4947589;28;92849;-76
2023/05/04 03:38:36;;;;;;;5.65;2.20;;;;;;;;;;4963228;28;92895;-78
2023/05/04 03:41:03;;;;;;;6.38;2.53;;;;;;;;;;4947263;28;93484;-77
2023/05/04 03:43:29;;;;;;;4.75;2.50;;;;;;;;;;4966031;28;93010;-77
2023/05/04 03:45:57;;;;;;;8.15;2.80;;;;;;;;;;4969688;28;95807;-79
2023/05/04 03:48:24;;;;;;;5.20;2.28;;;;;;;;;;4964069;28;96567;-78
2023/05/04 03:50:51;;;;;;;;;;;;;;;;;;4966402;28;92485;-78
2023/05/04 03:53:18;;;;;;;5.28;2.53;;;;;;;;;;4968784;28;118283;-78
2023/05/04 03:55:44;;;;;;;5.63;2.47;;;;;;;;;;4972035;28;95748;-78
2023/05/04 03:58:11;;;;;;;7.18;2.90;;;;;;;;;;4949916;28;93877;-78
2023/05/04 04:00:37;;;;;;;6.70;2.92;;;;;;;;;;4965446;28;92715;-78
2023/05/04 04:03:12;;;;;;;5.97;2.63;;;;;;;;;;4966603;28;92423;-77
2023/05/04 04:05:39;;;;;;;5.25;2.22;;;;;;;;;;4953705;28;94486;-77
2023/05/04 04:08:05;;;;;;;15.23;2.90;;;;;;;;;;4975681;28;94607;-77
2023/05/04 04:10:33;;;;;;;5.97;2.50;;;;;;;;;;4965992;28;92433;-77
2023/05/04 04:12:59;;;;;;;7.90;2.60;;;;;;;;;;4972110;28;94830;-77
2023/05/04 04:15:26;;;;;;;11.10;2.70;;;;;;;;;;4974680;28;93182;-78
2023/05/04 04:17:52;;;;;;;6.60;2.25;;;;;;;;;;4974134;28;92447;-78
2023/05/04 04:20:19;;;;;;;5.82;2.10;;;;;;;;;;4972584;28;92878;-78
2023/05/04 04:22:45;;;;;;;6.75;2.25;;;;;;;;;;4971512;28;92705;-77
2023/05/04 04:25:12;;;;;;;5.00;2.22;;;;;;;;;;4970194;28;99863;-77
2023/05/04 04:27:39;;;;;;;5.22;2.05;;;;;;;;;;4958587;28;92954;-77
2023/05/04 04:30:06;;;;;;;4.40;2.13;;;;;;;;;;4956176;28;91788;-77
2023/05/04 04:32:33;;;;;;;6.63;2.58;;;;;;;;;;4969861;28;92702;-78
2023/05/04 04:35:00;;;;;;;5.20;2.33;;;;;;;;;;4967021;28;94076;-78
2023/05/04 04:37:27;;;;;;;6.25;2.50;;;;;;;;;;4964694;28;94995;-77
2023/05/04 04:39:53;;;;;;;6.45;2.40;;;;;;;;;;4969087;28;93815;-78
2023/05/04 04:42:20;;;;;;;7.38;2.53;;;;;;;;;;4965480;28;93880;-77
2023/05/04 04:44:46;;;;;;;7.95;2.65;;;;;;;;;;4967898;28;93030;-77
2023/05/04 04:47:15;;;;;;;6.40;2.92;;;;;;;;;;4965955;28;93510;-76
2023/05/04 04:49:42;;;;;;;6.78;2.60;;;;;;;;;;4957457;28;92468;-77
2023/05/04 04:52:09;;;;;;;6.13;2.70;;;;;;;;;;4968609;28;93009;-77
2023/05/04 04:54:37;;;;;;;6.85;2.53;;;;;;;;;;4967774;28;92408;-77
2023/05/04 04:57:04;;;;;;;4.60;2.30;;;;;;;;;;4965660;28;92527;-78
2023/05/04 04:59:31;;;;;;;;;;;;;;;;;;4971099;28;93897;-78
2023/05/04 05:01:58;;;;;;;6.05;2.45;;;;;;;;;;4960567;28;95353;-78
2023/05/04 05:04:24;;;;;;;6.82;2.78;;;;;;;;;;4967109;28;96704;-77
2023/05/04 05:06:52;;;;;;;7.03;2.92;;;;;;;;;;4967751;28;93087;-77
2023/05/04 05:09:19;;;;;;;12.60;3.13;;;;;;;;;;4967629;28;92453;-77
2023/05/04 05:11:46;;;;;;;7.32;3.30;;;;;;;;;;4963720;28;93561;-78
2023/05/04 05:14:12;;;;;;;6.30;2.60;;;;;;;;;;4967972;28;93500;-78
2023/05/04 05:16:39;;;;;;;6.40;2.78;;;;;;;;;;4961293;28;92583;-78
2023/05/04 05:19:05;;;;;;;6.00;2.45;;;;;;;;;;4967873;28;92918;-78
2023/05/04 05:21:32;;;;;;;6.88;2.58;;;;;;;;;;4971116;28;92598;-77
2023/05/04 05:23:58;;;;;;;8.90;3.08;;;;;;;;;;4967997;28;93004;-78
2023/05/04 05:26:24;;;;;;;6.65;2.80;;;;;;;;;;4965137;28;96156;-78
2023/05/04 05:28:51;;;;;;;6.68;2.70;;;;;;;;;;4957408;28;92442;-79
2023/05/04 05:31:17;;;;;;;7.07;2.97;;;;;;;;;;4966041;28;93288;-79
2023/05/04 05:33:44;;;;;;;5.78;2.50;;;;;;;;;;4959800;28;93044;-79
2023/05/04 05:36:11;;;;;;;6.22;2.70;;;;;;;;;;4948359;28;92415;-77
2023/05/04 05:38:37;;;;;;;7.47;2.75;;;;;;;;;;4966445;28;94388;-79
2023/05/04 05:41:04;;;;;;;9.57;2.92;;;;;;;;;;4966299;28;93011;-79
2023/05/04 05:43:32;;;;;;;6.82;2.72;;;;;;;;;;4968723;28;92177;-78
2023/05/04 05:45:58;;;;;;;7.47;2.97;;;;;;;;;;4967516;28;93176;-77
2023/05/04 05:48:25;;;;;;;5.47;2.33;;;;;;;;;;4967823;28;92805;-78
2023/05/04 05:50:51;;;;;;;7.18;3.00;;;;;;;;;;4966028;28;95159;-78
2023/05/04 05:53:18;;;;;;;6.75;2.65;;;;;;;;;;4967704;28;93149;-78
2023/05/04 05:55:45;;;;;;;6.03;2.45;;;;;;;;;;4965398;28;92896;-78
2023/05/04 05:58:11;;;;;;;7.18;2.50;;;;;;;;;;4965730;28;93038;-77
2023/05/04 06:00:38;;;;;;;7.22;2.80;;;;;;;;;;4966895;28;93162;-77
2023/05/04 06:03:04;;;;;;;6.65;2.75;;;;;;;;;;4967222;28;93174;-79
2023/05/04 06:05:32;;;;;;;6.68;2.50;;;;;;;;;;4968445;28;94468;-77
2023/05/04 06:07:59;;;;;;;5.38;2.35;;;;;;;;;;4967655;28;91716;-77
2023/05/04 06:10:26;;;;;;;6.05;2.53;;;;;;;;;;4966316;28;92802;-77
2023/05/04 06:12:52;;;;;;;6.53;2.40;;;;;;;;;;4958932;28;99519;-77
2023/05/04 06:15:18;;;;;;;5.80;2.58;;;;;;;;;;4965489;28;95822;-76
2023/05/04 06:17:47;;;;;;;6.43;2.60;;;;;;;;;;4960853;28;95048;-77
2023/05/04 06:20:14;;;;;;;5.60;2.53;;;;;;;;;;4965179;28;95636;-77
2023/05/04 06:22:41;;;;;;;6.28;2.40;;;;;;;;;;4966531;28;92809;-77
2023/05/04 06:25:07;;;;;;;5.95;2.33;;;;;;;;;;4966398;28;93081;-77
2023/05/04 06:27:33;;;;;;;5.32;2.50;;;;;;;;;;4960996;28;93047;-78
2023/05/04 06:30:00;;;;;;;6.72;2.47;;;;;;;;;;4966589;28;92870;-78
2023/05/04 06:32:27;;;;;;;5.90;2.22;;;;;;;;;;4964335;28;92482;-77
2023/05/04 06:34:54;;;;;;;5.90;2.22;;;;;;;;;;4949395;28;92824;-76
2023/05/04 06:37:21;;;;;;;7.13;2.38;;;;;;;;;;4955806;28;94870;-76
2023/05/04 06:39:47;;;;;;;4.82;2.30;;;;;;;;;;4962988;28;95163;-77
2023/05/04 06:42:14;;;;;;;6.63;2.47;;;;;;;;;;4966348;28;92461;-75
2023/05/04 06:44:41;;;;;;;6.82;2.42;;;;;;;;;;4965859;28;92809;-76
2023/05/04 06:47:07;;;;;;;5.35;2.58;;;;;;;;;;4969274;28;93151;-75
2023/05/04 06:49:34;;;;;;;8.60;2.75;;;;;;;;;;4966108;28;92592;-76
2023/05/04 06:52:00;;;;;;;8.00;2.70;;;;;;;;;;4966027;28;93182;-76
2023/05/04 06:54:27;;;;;;;6.22;2.63;;;;;;;;;;4963964;28;92703;-76
2023/05/04 06:56:53;;;;;;;6.32;2.72;;;;;;;;;;4964097;28;92721;-76
2023/05/04 06:59:21;;;;;;;7.53;2.60;;;;;;;;;;4963741;28;94081;-77
2023/05/04 07:01:48;;;;;;;5.82;2.47;;;;;;;;;;4966477;28;92396;-76
2023/05/04 07:04:21;;;;;;;5.63;2.50;;;;;;;;;;4964150;28;95208;-76
2023/05/04 07:06:49;;;;;;;6.53;2.58;;;;;;;;;;4965881;28;97901;-77
2023/05/04 07:09:17;;;;;;;5.35;2.50;;;;;;;;;;4957911;28;92452;-77
2023/05/04 07:11:44;;;;;;;6.68;2.50;;;;;;;;;;4962037;28;93045;-77
2023/05/04 07:14:11;;;;;;;6.78;2.20;;;;;;;;;;4966069;28;92955;-77
2023/05/04 07:16:37;;;;;;;6.35;2.60;;;;;;;;;;4966145;28;92791;-77
2023/05/04 07:19:04;;;;;;;6.93;3.03;;;;;;;;;;4960129;28;93034;-78
2023/05/04 07:21:31;;;;;;;6.65;2.70;;;;;;;;;;4966518;28;91984;-77
2023/05/04 07:23:57;;;;;;;7.53;2.33;;;;;;;;;;4959637;28;99637;-77
2023/05/04 07:26:24;;;;;;;7.72;2.83;;;;;;;;;;4965762;28;93187;-77
2023/05/04 07:28:50;;;;;;;5.63;2.38;;;;;;;;;;4949546;28;95252;-77
2023/05/04 07:31:17;;;;;;;5.82;2.40;;;;;;;;;;4967468;28;95771;-77
2023/05/04 07:33:44;;;;;;;5.75;2.50;;;;;;;;;;4960298;28;92941;-77
2023/05/04 07:36:11;;;;;;;6.72;3.00;;;;;;;;;;4953000;28;93897;-77
2023/05/04 07:38:37;;;;;;;7.88;2.67;;;;;;;;;;4960469;28;95445;-76
2023/05/04 07:41:04;;;;;;;7.20;2.58;;;;;;;;;;4963257;28;92760;-76
2023/05/04 07:43:30;;;;;;;6.10;2.60;;;;;;;;;;4968000;28;92641;-76
2023/05/04 07:45:57;;;;;;;8.82;2.75;;;;;;;;;;4967449;28;91824;-76
2023/05/04 07:48:23;;;;;;;7.30;2.55;;;;;;;;;;4966666;28;92839;-76
2023/05/04 07:50:52;;;;;;;7.72;2.78;;;;;;;;;;4963226;28;93363;-77
2023/05/04 07:53:24;;;;;;;7.45;2.53;;;;;;;;;;4957413;28;97209;-76
2023/05/04 07:55:53;;;;;;;9.35;3.28;;;;;;;;;;4960879;28;95425;-76
2023/05/04 07:58:19;;;;;;;6.47;2.22;;;;;;;;;;4964745;28;95297;-77
2023/05/04 08:00:46;;;;;;;7.75;3.00;;;;;;;;;;4967800;28;92950;-76
2023/05/04 08:03:12;;;;;;;10.50;3.05;;;;;;;;;;4968734;28;95329;-76
2023/05/04 08:05:39;;;;;;;7.75;2.83;;;;;;;;;;4961819;28;94514;-76
2023/05/04 08:08:07;;;;;;;8.48;2.50;;;;;;;;;;4959329;28;92726;-78
2023/05/04 08:10:36;;;;;;;10.55;4.53;;;;;;;;;;4951799;28;95050;-77
2023/05/04 08:13:03;;;;;;;11.73;4.18;;;;;;;;;;4969619;28;93704;-77
2023/05/04 08:15:30;;;;;;;;;;;;;;;;;;4955612;28;92892;-77
2023/05/04 08:17:58;;;;;;;8.00;3.50;;;;;;;;;;4955172;28;95658;-77
2023/05/04 08:20:24;;;;;;;6.75;2.90;;;;;;;;;;4965039;28;92936;-78
2023/05/04 08:22:52;;;;;;;5.70;2.67;;;;;;;;;;4957684;28;93024;-78
2023/05/04 08:25:18;;;;;;;8.98;3.95;;;;;;;;;;4946305;28;93206;-77
2023/05/04 08:27:45;;;;;;;8.52;4.18;;;;;;;;;;4948038;28;93186;-76
2023/05/04 08:30:11;;;;;;;8.95;3.90;;;;;;;;;;4947050;28;92918;-77
2023/05/04 08:32:38;;;;;;;7.95;3.40;;;;;;;;;;4960472;28;93184;-76
2023/05/04 08:35:05;;;;;;;7.53;2.60;;;;;;;;;;4963211;28;92148;-76
2023/05/04 08:37:32;;;;;;;8.35;4.13;;;;;;;;;;4964110;28;92475;-77
2023/05/04 08:39:58;;;;;;;5.05;2.10;;;;;;;;;;4969096;28;92995;-78
2023/05/04 08:42:29;;;;;;;4.20;1.73;;;;;;;;;;4954172;28;94809;-78
2023/05/04 08:44:56;;;;;;;4.05;1.70;;;;;;;;;;4969968;28;93101;-78
2023/05/04 08:47:27;;;;;;;5.75;2.17;;;;;;;;;;4963145;28;92894;-78
2023/05/04 08:49:57;;;;;;;7.45;2.65;;;;;;;;;;4966686;28;95727;-77
2023/05/04 08:52:24;;;;;;;4.88;2.05;;;;;;;;;;4948885;28;92770;-78
2023/05/04 08:54:53;;;;;;;6.38;2.40;;;;;;;;;;4967700;28;92538;-78
2023/05/04 08:57:21;;;;;;;5.47;2.28;;;;;;;;;;4968819;28;92853;-78
2023/05/04 08:59:49;;;;;;;6.47;2.70;;;;;;;;;;4968436;28;91804;-77
2023/05/04 09:02:17;;;;;;;7.80;2.70;;;;;;;;;;4967892;28;92414;-77
2023/05/04 09:04:44;;;;;;;6.50;2.60;;;;;;;;;;4968016;28;97747;-78
2023/05/04 09:07:10;;;;;;;7.13;2.70;;;;;;;;;;4959311;28;95087;-77
2023/05/04 09:09:37;;;;;;;6.28;2.70;;;;;;;;;;4959824;28;95232;-78
2023/05/04 09:12:04;;;;;;;6.18;2.85;;;;;;;;;;4967820;28;93966;-77
2023/05/04 09:14:32;;;;;;;6.25;2.50;;;;;;;;;;4964788;28;93328;-78
2023/05/04 09:16:59;;;;;;;7.43;2.80;;;;;;;;;;4959191;28;92778;-76
2023/05/04 09:19:32;;;;;;;6.70;2.60;;;;;;;;;;4969959;28;93182;-77
2023/05/04 09:21:59;;;;;;;6.60;3.03;;;;;;;;;;4964050;28;93681;-77
2023/05/04 09:24:26;;;;;;;;;;;;;;;;;;4959069;28;92455;-78
2023/05/04 09:26:52;;;;;;;5.75;2.53;;;;;;;;;;4962002;28;94232;-76
2023/05/04 09:29:20;;;;;;;6.20;2.65;;;;;;;;;;4967798;28;92936;-76
2023/05/04 09:31:48;;;;;;;7.45;2.58;;;;;;;;;;4966270;28;95564;-77
2023/05/04 09:34:15;;;;;;;7.45;3.13;;;;;;;;;;4964285;28;93251;-78
2023/05/04 09:36:42;;;;;;;7.43;2.35;;;;;;;;;;4962867;28;92676;-78
2023/05/04 09:39:09;;;;;;;6.05;2.70;;;;;;;;;;4960973;28;93044;-78
2023/05/04 09:41:37;;;;;;;6.47;2.13;;;;;;;;;;4965751;28;92675;-78
2023/05/04 09:44:03;;;;;;;4.45;2.22;;;;;;;;;;4963227;28;94741;-78
2023/05/04 09:46:30;;;;;;;6.78;2.70;;;;;;;;;;4967087;28;93004;-77
2023/05/04 09:48:57;;;;;;;5.72;2.30;;;;;;;;;;4965855;28;95825;-77
2023/05/04 09:51:25;;;;;;;6.35;2.47;;;;;;;;;;4968061;28;93171;-77
2023/05/04 09:53:52;;;;;;;5.65;2.30;;;;;;;;;;4967879;28;92956;-77
2023/05/04 09:56:26;;;;;;;7.20;2.30;;;;;;;;;;4966336;28;94888;-77
2023/05/04 09:58:52;;;;;;;;;;;;;;;;;;4955576;28;93162;-77
2023/05/04 10:01:19;;;;;;;5.68;2.10;;;;;;;;;;4966914;28;111579;-77
2023/05/04 10:03:46;;;;;;;7.95;2.90;;;;;;;;;;4970217;28;92935;-77
2023/05/04 10:06:12;;;;;;;5.22;1.92;;;;;;;;;;4967004;28;92748;-77
2023/05/04 10:08:40;;;;;;;7.97;2.75;;;;;;;;;;4966568;28;92657;-77
2023/05/04 10:11:07;;;;;;;9.77;2.65;;;;;;;;;;4965540;28;92981;-77
2023/05/04 10:13:33;;;;;;;6.03;2.50;;;;;;;;;;4948357;28;92071;-77
2023/05/04 10:16:09;;;;;;;5.95;2.50;;;;;;;;;;4950726;28;93512;-78
2023/05/04 10:18:35;;;;;;;4.72;2.08;;;;;;;;;;4966130;28;93824;-77
2023/05/04 10:21:15;;;;;;;5.18;1.80;;;;;;;;;;4965058;28;95564;-77
2023/05/04 10:23:47;;;;;;;7.32;2.35;;;;;;;;;;4962206;28;95480;-76
2023/05/04 10:26:36;;;;;;;6.75;2.20;;;;;;;;;;4968657;28;93308;-78
2023/05/04 10:29:03;;;;;;;19.75;3.38;;;;;;;;;;4953391;28;97216;-77
2023/05/04 10:31:40;;;;;;;6.65;2.80;;;;;;;;;;4965120;28;93683;-77
2023/05/04 10:34:07;;;;;;;7.43;2.53;;;;;;;;;;4964499;28;92953;-81
2023/05/04 10:36:34;;;;;;;8.75;3.50;;;;;;;;;;4961531;28;93003;-78
2023/05/04 10:39:01;;;;;;;7.60;3.15;;;;;;;;;;4958001;28;92690;-78
2023/05/04 10:41:27;;;;;;;7.35;3.17;;;;;;;;;;4965988;28;93387;-79
2023/05/04 10:44:04;;;;;;;8.95;3.10;;;;;;;;;;4966042;28;92796;-78
2023/05/04 10:46:30;;;;;;;8.75;3.63;;;;;;;;;;4963500;28;98641;-78
2023/05/04 10:48:57;;;;;;;7.72;2.78;;;;;;;;;;4965881;28;92681;-78
2023/05/04 10:51:24;;;;;;;8.30;3.30;;;;;;;;;;4955310;28;93899;-77
2023/05/04 10:54:00;;;;;;;8.55;3.70;;;;;;;;;;4961425;28;93782;-77
2023/05/04 10:56:27;;;;;;;9.85;3.92;;;;;;;;;;4961259;28;92945;-79
2023/05/04 10:58:53;;;;;;;;;;;;;;;;;;4960792;28;93480;-79
2023/05/04 11:01:20;;;;;;;7.40;3.33;;;;;;;;;;4954861;28;98242;-78
2023/05/04 11:03:47;;;;;;;8.63;2.90;;;;;;;;;;4965906;28;93804;-78
2023/05/04 11:10:08;;;;;;;7.30;2.80;;;;;;;;;;4951660;28;92515;-77
2023/05/04 11:12:36;;;;;;;10.15;3.88;;;;;;;;;;4959803;28;96007;-77
2023/05/04 11:15:06;;;;;;;6.45;2.95;;;;;;;;;;4963819;28;92707;-77
2023/05/04 11:17:33;;;;;;;5.93;2.22;;;;;;;;;;4961225;28;92822;-77
2023/05/04 11:20:00;;;;;;;6.85;2.65;;;;;;;;;;4958733;28;94075;-77
2023/05/04 11:22:27;;;;;;;5.28;2.22;;;;;;;;;;4959325;28;92822;-77
2023/05/04 11:24:53;;;;;;;7.90;2.92;;;;;;;;;;4947768;28;93970;-77
2023/05/04 11:27:22;;;;;;;6.95;2.85;;;;;;;;;;4975974;28;92997;-77
2023/05/04 11:29:48;;;;;;;;;;;;;;;;;;4971525;28;91708;-77
2023/05/04 11:32:15;;;;;;;7.25;3.00;;;;;;;;;;4954643;28;106789;-77
2023/05/04 11:34:44;;;;;;;10.93;4.03;;;;;;;;;;4958811;28;92521;-77
2023/05/04 11:37:11;;;;;;;7.30;2.25;;;;;;;;;;4937504;28;95392;-79
2023/05/04 11:39:38;;;;;;;4.97;1.98;;;;;;;;;;4955983;28;93067;-78
2023/05/04 11:42:08;;;;;;;5.53;2.00;;;;;;;;;;4965394;28;92986;-79
2023/05/04 11:44:36;;;;;;;3.72;2.03;;;;;;;;;;4945134;28;93895;-79
2023/05/04 11:47:02;;;;;;;5.88;2.17;;;;;;;;;;4948384;28;92754;-79
2023/05/04 11:49:30;;;;;;;5.05;2.10;;;;;;;;;;4957989;28;92751;-78
2023/05/04 11:52:06;;;;;;;4.68;2.10;;;;;;;;;;4966379;28;92672;-78
2023/05/04 11:54:33;;;;;;;4.38;2.30;;;;;;;;;;4964155;28;92450;-78
2023/05/04 11:57:03;;;;;;;4.28;2.03;;;;;;;;;;4963762;28;92523;-78
2023/05/04 11:59:32;;;;;;;4.97;2.00;;;;;;;;;;4947736;28;93399;-78
2023/05/04 12:01:59;;;;;;;4.55;2.00;;;;;;;;;;4947152;28;95147;-78
2023/05/04 12:04:31;;;;;;;5.13;2.40;;;;;;;;;;4949099;28;94878;-78
2023/05/04 12:06:58;;;;;;;4.97;1.90;;;;;;;;;;4950675;28;92767;-77
2023/05/04 12:09:27;;;;;;;4.78;1.67;;;;;;;;;;4952539;28;93195;-77
2023/05/04 12:11:55;;;;;;;5.55;2.15;;;;;;;;;;4954596;28;92379;-78
2023/05/04 12:14:23;;;;;;;9.18;2.40;;;;;;;;;;4969581;28;93153;-78
2023/05/04 12:16:54;;;;;;;5.95;2.20;;;;;;;;;;4964042;28;93768;-78
2023/05/04 12:19:21;;;;;;;3.78;1.75;;;;;;;;;;4969385;28;91712;-77
2023/05/04 12:21:52;;;;;;;6.03;1.90;;;;;;;;;;4974889;28;92606;-77
2023/05/04 12:24:22;;;;;;;6.03;1.90;;;;;;;;;;4972784;28;92435;-78
2023/05/04 12:26:49;;;;;;;5.20;1.83;;;;;;;;;;4966991;28;95380;-78
2023/05/04 12:29:16;;;;;;;5.22;2.00;;;;;;;;;;4975451;28;93023;-78
2023/05/04 12:31:43;;;;;;;4.15;1.80;;;;;;;;;;4968796;28;92614;-79
2023/05/04 12:34:09;;;;;;;5.28;1.92;;;;;;;;;;4954182;28;92487;-78
2023/05/04 12:36:36;;;;;;;4.03;1.70;;;;;;;;;;4957241;28;92571;-77
2023/05/04 12:39:03;;;;;;;4.97;1.80;;;;;;;;;;4974366;28;92888;-77
2023/05/04 12:41:30;;;;;;;4.53;1.77;;;;;;;;;;4973185;28;92816;-80
2023/05/04 12:43:57;;;;;;;3.65;1.50;;;;;;;;;;4974025;28;93122;-78
2023/05/04 12:46:23;;;;;;;3.85;1.60;;;;;;;;;;4969654;28;93055;-79
2023/05/04 12:48:50;;;;;;;3.13;1.70;;;;;;;;;;4955182;28;92489;-79
2023/05/04 12:51:16;;;;;;;4.75;2.30;;;;;;;;;;4968893;28;94778;-78
2023/05/04 12:53:43;;;;;;;4.68;1.90;;;;;;;;;;4967358;28;93029;-79
2023/05/04 12:56:09;;;;;;;5.38;2.30;;;;;;;;;;4971165;28;92434;-79
2023/05/04 12:58:36;;;;;;;5.72;1.75;;;;;;;;;;4957496;28;93096;-83
2023/05/04 13:01:02;;;;;;;3.85;1.80;;;;;;;;;;4952066;28;99480;-83
2023/05/04 13:03:29;;;;;;;5.10;2.10;;;;;;;;;;4950432;28;93256;-83
2023/05/04 13:05:56;;;;;;;4.55;1.92;;;;;;;;;;4952139;28;93113;-83
2023/05/04 13:08:22;;;;;;;3.80;1.73;;;;;;;;;;4953233;28;95129;-83
2023/05/04 13:10:49;;;;;;;4.47;1.60;;;;;;;;;;4957564;28;92771;-83
2023/05/04 13:13:16;;;;;;;3.30;1.52;;;;;;;;;;4971515;28;93210;-83
2023/05/04 13:15:43;;;;;;;4.20;1.90;;;;;;;;;;4969635;28;95499;-83
2023/05/04 13:18:11;;;;;;;5.10;2.00;;;;;;;;;;4973353;28;95870;-83
2023/05/04 13:20:38;;;;;;;5.18;1.80;;;;;;;;;;4972229;28;94988;-83
2023/05/04 13:23:05;;;;;;;4.25;1.70;;;;;;;;;;4966533;28;92706;-84
2023/05/04 13:25:31;;;;;;;4.00;1.90;;;;;;;;;;4966084;28;93182;-83
2023/05/04 13:27:58;;;;;;;3.97;1.80;;;;;;;;;;4951817;28;92938;-83
2023/05/04 13:30:25;;;;;;;4.20;1.80;;;;;;;;;;4949714;28;93283;-83
2023/05/04 13:32:51;;;;;;;4.43;1.75;;;;;;;;;;4970095;28;92734;-83
2023/05/04 13:35:18;;;;;;;4.18;1.90;;;;;;;;;;4961476;28;93081;-83
2023/05/04 13:37:45;;;;;;;5.32;2.10;;;;;;;;;;4950438;28;92720;-83
2023/05/04 13:40:12;;;;;;;4.22;1.70;;;;;;;;;;4950407;28;95463;-83
2023/05/04 13:42:38;;;;;;;5.65;2.47;;;;;;;;;;4950855;28;92608;-83
2023/05/04 13:45:06;;;;;;;2.88;1.58;;;;;;;;;;4951965;28;93289;-83
2023/05/04 13:47:36;;;;;;;3.30;1.92;;;;;;;;;;4951691;28;92379;-83
2023/05/04 13:50:03;;;;;;;3.92;1.80;;;;;;;;;;4951272;28;92910;-83
2023/05/04 13:52:30;;;;;;;4.15;1.60;;;;;;;;;;4950908;28;93293;-83
2023/05/04 13:54:58;;;;;;;4.22;1.67;;;;;;;;;;4951475;28;92694;-83
2023/05/04 13:57:26;;;;;;;4.25;1.67;;;;;;;;;;4951960;28;91720;-83
2023/05/04 13:59:53;;;;;;;3.22;1.73;;;;;;;;;;4948135;28;94899;-84
2023/05/04 14:02:38;;;;;;;5.53;2.15;;;;;;;;;;4951631;28;92952;-83
2023/05/04 14:05:06;;;;;;;3.58;1.70;;;;;;;;;;4952730;28;94941;-83
2023/05/04 14:07:33;;;;;;;5.00;1.95;;;;;;;;;;4953453;28;92969;-84
2023/05/04 14:10:00;;;;;;;5.32;2.15;;;;;;;;;;4954814;28;92643;-82
2023/05/04 14:12:27;;;;;;;4.03;1.85;;;;;;;;;;4950041;28;93111;-81
2023/05/04 14:14:54;;;;;;;11.35;1.90;;;;;;;;;;4950270;28;92979;-82
2023/05/04 14:17:21;;;;;;;14.73;6.68;;;;;;;;;;4948685;28;96785;-81
2023/05/04 14:19:47;;;;;;;19.08;4.05;;;;;;;;;;4949906;28;93207;-81
2023/05/04 14:22:14;;;;;;;13.77;7.40;;;;;;;;;;4950971;28;91731;-82
2023/05/04 14:24:40;;;;;;;13.20;6.40;;;;;;;;;;4947266;28;94611;-82
2023/05/04 14:27:07;;;;;;;11.80;6.57;;;;;;;;;;4952938;28;94085;-81
2023/05/04 14:29:34;;;;;;;11.02;4.97;;;;;;;;;;4948764;28;94958;-81
2023/05/04 14:32:00;;;;;;;15.20;7.30;;;;;;;;;;4949095;28;94329;-81
2023/05/04 14:34:27;;;;;;;14.40;6.97;;;;;;;;;;4948487;28;92649;-81
2023/05/04 14:36:54;;;;;;;16.83;7.35;;;;;;;;;;4949913;28;92690;-81
2023/05/04 14:39:21;;;;;;;12.43;7.15;;;;;;;;;;4944518;28;93231;-82
2023/05/04 14:41:47;;;;;;;13.48;7.60;;;;;;;;;;4942937;28;92403;-81
2023/05/04 14:44:14;;;;;;;12.73;6.40;;;;;;;;;;4951052;28;92533;-81
2023/05/04 14:46:41;;;;;;;13.38;6.80;;;;;;;;;;4951542;28;92705;-82
2023/05/04 14:49:07;;;;;;;11.65;6.90;;;;;;;;;;4946905;28;93166;-82